createdAt,value
2017-06-03T00:02:09.815Z,3.65
2017-06-03T00:04:36.483Z,4.35
2017-06-03T00:07:03.210Z,5.10
2017-06-03T00:09:29.897Z,3.78
2017-06-03T00:11:56.563Z,3.62
2017-06-03T00:14:23.262Z,3.35
2017-06-03T00:16:49.928Z,3.43
2017-06-03T00:19:16.595Z,3.75
2017-06-03T00:21:43.260Z,3.47
2017-06-03T00:24:09.924Z,4.05
2017-06-03T00:26:36.596Z,3.50
2017-06-03T00:29:03.263Z,3.48
2017-06-03T00:31:29.934Z,3.10
2017-06-03T00:33:56.607Z,3.10
2017-06-03T00:36:23.300Z,3.23
2017-06-03T00:38:49.975Z,3.30
2017-06-03T00:41:16.648Z,2.63
2017-06-03T00:43:43.319Z,3.18
2017-06-03T00:46:09.987Z,2.68
2017-06-03T00:48:36.659Z,2.98
2017-06-03T00:51:03.329Z,2.98
2017-06-03T00:53:30.000Z,3.78
2017-06-03T00:55:56.692Z,3.95
2017-06-03T00:58:23.356Z,2.67
2017-06-03T01:00:50.052Z,2.50
2017-06-03T01:03:16.719Z,4.45
2017-06-03T01:05:43.411Z,3.57
2017-06-03T01:08:10.085Z,4.35
2017-06-03T01:10:36.752Z,3.88
2017-06-03T01:13:03.419Z,3.23
2017-06-03T01:15:30.090Z,3.88
2017-06-03T01:17:56.780Z,4.48
2017-06-03T01:20:23.448Z,3.58
2017-06-03T01:22:50.145Z,3.30
2017-06-03T01:25:16.824Z,2.80
2017-06-03T01:27:43.527Z,2.82
2017-06-03T01:30:10.203Z,3.32
2017-06-03T01:32:36.888Z,3.57
2017-06-03T01:35:03.555Z,5.47
2017-06-03T01:37:30.229Z,5.98
2017-06-03T01:39:56.895Z,3.10
2017-06-03T01:42:23.559Z,3.75
2017-06-03T01:44:50.228Z,2.90
2017-06-03T01:47:16.892Z,3.08
2017-06-03T01:49:43.569Z,3.32
2017-06-03T01:52:10.235Z,2.85
2017-06-03T01:54:36.931Z,3.25
2017-06-03T01:57:03.603Z,2.88
2017-06-03T01:59:30.267Z,2.73
2017-06-03T02:01:56.968Z,2.78
2017-06-03T02:04:23.637Z,4.58
2017-06-03T02:06:50.308Z,2.78
2017-06-03T02:09:16.975Z,3.43
2017-06-03T02:11:43.664Z,3.32
2017-06-03T02:14:10.332Z,3.02
2017-06-03T02:16:37.000Z,2.88
2017-06-03T02:19:03.692Z,3.12
2017-06-03T02:21:30.389Z,3.18
2017-06-03T02:23:57.061Z,4.92
2017-06-03T02:26:23.735Z,4.17
2017-06-03T02:28:50.404Z,3.22
2017-06-03T02:31:17.072Z,5.22
2017-06-03T02:33:43.751Z,4.58
2017-06-03T02:36:10.424Z,3.37
2017-06-03T02:38:37.091Z,5.27
2017-06-03T02:41:03.762Z,3.17
2017-06-03T02:43:30.435Z,3.58
2017-06-03T02:45:57.105Z,3.70
2017-06-03T02:48:23.804Z,3.33
2017-06-03T02:50:50.472Z,3.52
2017-06-03T02:53:17.140Z,3.15
2017-06-03T02:55:43.811Z,3.38
2017-06-03T02:58:10.484Z,3.40
2017-06-03T03:00:37.157Z,5.10
2017-06-03T03:03:03.823Z,4.63
2017-06-03T03:05:30.496Z,3.65
2017-06-03T03:07:57.175Z,3.68
2017-06-03T03:10:23.851Z,3.57
2017-06-03T03:12:50.523Z,4.23
2017-06-03T03:15:17.216Z,5.37
2017-06-03T03:17:43.892Z,3.50
2017-06-03T03:20:10.564Z,4.33
2017-06-03T03:22:37.238Z,3.78
2017-06-03T03:25:03.907Z,4.23
2017-06-03T03:27:30.575Z,3.98
2017-06-03T03:29:57.250Z,7.40
2017-06-03T03:32:23.944Z,4.22
2017-06-03T03:34:50.617Z,3.25
2017-06-03T03:37:17.311Z,4.40
2017-06-03T03:39:43.977Z,3.87
2017-06-03T03:42:10.640Z,3.62
2017-06-03T03:44:37.339Z,3.68
2017-06-03T03:47:04.016Z,4.97
2017-06-03T03:49:30.718Z,4.25
2017-06-03T03:51:57.460Z,3.88
2017-06-03T03:54:24.163Z,3.83
2017-06-03T03:56:50.828Z,6.23
2017-06-03T03:59:17.496Z,4.52
2017-06-03T04:01:44.175Z,4.47
2017-06-03T04:04:10.840Z,4.40
2017-06-03T04:06:37.508Z,3.88
2017-06-03T04:09:04.178Z,5.60
2017-06-03T04:11:30.867Z,8.80
2017-06-03T04:13:57.531Z,5.33
2017-06-03T04:16:24.227Z,10.28
2017-06-03T04:18:50.896Z,6.48
2017-06-03T04:21:17.608Z,6.02
2017-06-03T04:23:44.277Z,5.58
2017-06-03T04:26:10.949Z,5.53
2017-06-03T04:28:37.628Z,6.62
2017-06-03T04:31:04.295Z,5.10
2017-06-03T04:33:30.961Z,4.80
2017-06-03T04:35:57.634Z,4.98
2017-06-03T04:38:24.327Z,6.35
2017-06-03T04:40:50.998Z,5.13
2017-06-03T04:43:17.695Z,4.47
2017-06-03T04:45:44.372Z,5.88
2017-06-03T04:48:11.072Z,7.85
2017-06-03T04:50:37.766Z,7.52
2017-06-03T04:53:04.435Z,9.75
2017-06-03T04:55:31.100Z,4.33
2017-06-03T04:57:57.772Z,5.67
2017-06-03T05:00:24.441Z,5.28
2017-06-03T05:02:51.105Z,4.92
2017-06-03T05:05:17.778Z,5.02
2017-06-03T05:07:44.448Z,4.70
2017-06-03T05:10:11.149Z,5.15
2017-06-03T05:12:37.829Z,5.97
2017-06-03T05:15:04.532Z,4.78
2017-06-03T05:17:31.204Z,5.22
2017-06-03T05:19:57.872Z,7.13
2017-06-03T05:22:24.544Z,9.32
2017-06-03T05:24:51.221Z,6.05
2017-06-03T05:27:17.892Z,5.08
2017-06-03T05:29:44.560Z,6.53
2017-06-03T05:32:11.297Z,5.43
2017-06-03T05:34:38.151Z,6.02
2017-06-03T05:37:04.985Z,6.25
2017-06-03T05:39:31.654Z,4.60
2017-06-03T05:41:58.326Z,4.98
2017-06-03T05:44:24.998Z,5.50
2017-06-03T05:46:51.663Z,4.75
2017-06-03T05:49:18.382Z,6.05
2017-06-03T05:51:45.052Z,5.00
2017-06-03T05:54:11.725Z,4.98
2017-06-03T05:56:38.392Z,5.95
2017-06-03T05:59:05.089Z,4.98
2017-06-03T06:01:31.761Z,6.13
2017-06-03T06:03:58.523Z,8.58
2017-06-03T06:06:25.224Z,5.40
2017-06-03T06:08:51.896Z,6.43
2017-06-03T06:11:18.588Z,5.48
2017-06-03T06:13:45.281Z,6.07
2017-06-03T06:16:12.026Z,6.30
2017-06-03T06:18:38.767Z,5.12
2017-06-03T06:21:05.431Z,8.78
2017-06-03T06:23:32.129Z,5.82
2017-06-03T06:25:58.888Z,6.83
2017-06-03T06:28:25.584Z,8.50
2017-06-03T06:30:52.255Z,6.87
2017-06-03T06:33:18.956Z,5.32
2017-06-03T06:35:45.669Z,6.68
2017-06-03T06:38:12.391Z,6.50
2017-06-03T06:40:39.072Z,7.25
2017-06-03T06:43:05.784Z,6.08
2017-06-03T06:45:32.460Z,5.20
2017-06-03T06:47:59.136Z,6.40
2017-06-03T06:50:25.822Z,7.15
2017-06-03T06:52:52.491Z,6.20
2017-06-03T06:55:19.188Z,6.42
2017-06-03T06:57:45.872Z,6.20
2017-06-03T07:00:12.662Z,5.98
2017-06-03T07:02:39.359Z,6.76
2017-06-03T07:05:06.056Z,5.98
2017-06-03T07:07:32.724Z,6.38
2017-06-03T07:09:59.428Z,6.56
2017-06-03T07:12:26.100Z,6.72
2017-06-03T07:14:52.768Z,7.00
2017-06-03T07:17:19.436Z,6.46
2017-06-03T07:19:46.111Z,6.32
2017-06-03T07:22:12.809Z,7.08
2017-06-03T07:24:39.479Z,7.20
2017-06-03T07:27:06.173Z,6.68
2017-06-03T07:29:32.841Z,7.38
2017-06-03T07:31:59.575Z,6.68
2017-06-03T07:34:26.240Z,8.54
2017-06-03T07:36:52.914Z,6.72
2017-06-03T07:39:19.600Z,7.88
2017-06-03T07:41:46.274Z,7.78
2017-06-03T07:44:12.944Z,7.32
2017-06-03T07:46:39.616Z,7.74
2017-06-03T07:49:06.308Z,7.38
2017-06-03T07:51:32.984Z,6.88
2017-06-03T07:53:59.680Z,10.92
2017-06-03T07:56:26.348Z,7.14
2017-06-03T07:58:53.052Z,7.76
2017-06-03T08:01:19.724Z,7.88
2017-06-03T08:04:21.885Z,6.40
2017-06-03T08:06:48.548Z,6.83
2017-06-03T08:09:15.274Z,6.93
2017-06-03T08:11:41.942Z,8.57
2017-06-03T08:14:08.609Z,7.67
2017-06-03T08:16:35.276Z,7.30
2017-06-03T08:19:01.940Z,7.60
2017-06-03T08:21:28.623Z,7.93
2017-06-03T08:23:55.289Z,7.87
2017-06-03T08:26:22.001Z,8.60
2017-06-03T08:28:48.664Z,8.03
2017-06-03T08:31:15.369Z,9.97
2017-06-03T08:33:42.040Z,8.53
2017-06-03T08:36:08.703Z,8.93
2017-06-03T08:38:35.431Z,7.50
2017-06-03T08:41:02.093Z,9.80
2017-06-03T08:43:28.774Z,9.00
2017-06-03T08:45:55.465Z,8.70
2017-06-03T08:48:22.179Z,8.57
2017-06-03T08:50:48.847Z,11.60
2017-06-03T08:53:15.540Z,9.40
2017-06-03T08:55:42.221Z,9.23
2017-06-03T08:58:08.915Z,8.90
2017-06-03T09:00:35.607Z,8.37
2017-06-03T09:03:02.279Z,8.93
2017-06-03T09:05:29.006Z,9.47
2017-06-03T09:07:55.739Z,9.00
2017-06-03T09:10:22.468Z,9.37
2017-06-03T09:12:49.139Z,9.33
2017-06-03T09:15:15.886Z,9.90
2017-06-03T09:17:42.571Z,9.50
2017-06-03T09:20:09.276Z,8.67
2017-06-03T09:22:35.982Z,10.27
2017-06-03T09:25:02.675Z,10.67
2017-06-03T09:27:29.376Z,9.57
2017-06-03T09:29:56.051Z,11.40
2017-06-03T09:32:22.727Z,10.40
2017-06-03T09:34:49.391Z,10.60
2017-06-03T09:37:16.108Z,10.63
2017-06-03T09:39:42.780Z,9.77
2017-06-03T09:42:09.475Z,9.97
2017-06-03T09:44:36.143Z,10.63
2017-06-03T09:47:02.840Z,14.47
2017-06-03T09:49:29.507Z,12.00
2017-06-03T09:51:56.176Z,13.93
2017-06-03T09:54:22.840Z,10.73
2017-06-03T09:56:49.508Z,10.23
2017-06-03T09:59:16.204Z,12.03
2017-06-03T10:01:42.867Z,10.57
2017-06-03T10:04:09.560Z,10.23
2017-06-03T10:06:36.227Z,11.33
2017-06-03T10:09:02.952Z,9.97
2017-06-03T10:11:29.623Z,10.73
2017-06-03T10:13:56.291Z,10.13
2017-06-03T10:16:22.960Z,11.87
2017-06-03T10:18:49.632Z,13.13
2017-06-03T10:21:16.327Z,13.20
2017-06-03T10:23:42.995Z,12.40
2017-06-03T10:26:09.695Z,14.33
2017-06-03T10:28:36.369Z,12.60
2017-06-03T10:31:03.037Z,13.03
2017-06-03T10:33:29.713Z,12.53
2017-06-03T10:35:56.385Z,13.20
2017-06-03T10:38:23.078Z,13.40
2017-06-03T10:40:49.761Z,12.87
2017-06-03T10:43:16.465Z,13.00
2017-06-03T10:45:43.133Z,12.50
2017-06-03T10:48:09.817Z,12.70
2017-06-03T10:50:36.487Z,13.30
2017-06-03T10:53:03.155Z,13.10
2017-06-03T10:55:29.825Z,12.27
2017-06-03T10:57:56.499Z,14.13
2017-06-03T11:00:23.180Z,14.67
2017-06-03T11:02:49.848Z,12.03
2017-06-03T11:05:16.516Z,15.27
2017-06-03T11:07:43.192Z,15.07
2017-06-03T11:10:09.927Z,16.23
2017-06-03T11:12:36.607Z,14.10
2017-06-03T11:15:03.278Z,14.67
2017-06-03T11:17:29.943Z,14.17
2017-06-03T11:19:56.620Z,15.50
2017-06-03T11:22:23.300Z,17.60
2017-06-03T11:24:49.972Z,17.33
2017-06-03T11:27:16.641Z,16.60
2017-06-03T11:29:43.313Z,16.23
2017-06-03T11:32:09.987Z,14.03
2017-06-03T11:34:36.655Z,16.43
2017-06-03T11:37:03.407Z,15.97
2017-06-03T11:39:30.086Z,17.37
2017-06-03T11:41:56.756Z,17.00
2017-06-03T11:44:23.428Z,19.30
2017-06-03T11:46:50.099Z,19.97
2017-06-03T11:49:16.799Z,20.30
2017-06-03T11:51:43.473Z,18.73
2017-06-03T11:54:10.144Z,18.03
2017-06-03T11:56:36.815Z,21.33
2017-06-03T11:59:03.480Z,20.67
2017-06-03T12:01:30.201Z,20.80
2017-06-03T12:03:56.895Z,20.70
2017-06-03T12:06:23.604Z,20.63
2017-06-03T12:08:50.283Z,22.77
2017-06-03T12:11:16.987Z,20.20
2017-06-03T12:13:43.655Z,21.30
2017-06-03T12:16:10.323Z,18.70
2017-06-03T12:18:36.988Z,20.60
2017-06-03T12:21:03.659Z,23.10
2017-06-03T12:23:30.351Z,23.33
2017-06-03T12:25:57.024Z,24.40
2017-06-03T12:28:23.720Z,24.00
2017-06-03T12:30:50.393Z,25.87
2017-06-03T12:33:17.059Z,27.80
2017-06-03T12:35:43.734Z,29.17
2017-06-03T12:38:10.412Z,30.27
2017-06-03T12:40:37.109Z,28.13
2017-06-03T12:43:03.776Z,26.87
2017-06-03T12:45:30.467Z,34.37
2017-06-03T12:47:57.162Z,29.20
2017-06-03T12:50:23.835Z,31.00
2017-06-03T12:52:50.536Z,32.43
2017-06-03T12:55:17.211Z,32.43
2017-06-03T12:57:43.911Z,31.40
2017-06-03T13:00:10.593Z,31.33
2017-06-03T13:02:37.295Z,32.60
2017-06-03T13:05:03.973Z,30.13
2017-06-03T13:07:30.670Z,33.80
2017-06-03T13:09:57.344Z,31.23
2017-06-03T13:12:24.036Z,29.80
2017-06-03T13:14:50.706Z,29.87
2017-06-03T13:17:17.405Z,27.17
2017-06-03T13:19:44.103Z,25.17
2017-06-03T13:22:10.788Z,29.57
2017-06-03T13:24:37.460Z,29.43
2017-06-03T13:27:04.156Z,28.83
2017-06-03T13:29:30.828Z,28.73
2017-06-03T13:31:57.523Z,26.23
2017-06-03T13:34:24.192Z,27.00
2017-06-03T13:36:50.892Z,27.50
2017-06-03T13:39:17.555Z,29.30
2017-06-03T13:41:44.239Z,32.77
2017-06-03T13:44:10.921Z,27.93
2017-06-03T13:46:37.615Z,28.57
2017-06-03T13:49:04.291Z,26.30
2017-06-03T13:51:31.033Z,39.13
2017-06-03T13:53:57.707Z,34.50
2017-06-03T13:56:24.383Z,35.97
2017-06-03T13:58:51.051Z,35.37
2017-06-03T14:01:17.723Z,35.20
2017-06-03T14:03:44.395Z,35.80
2017-06-03T14:06:11.064Z,35.37
2017-06-03T14:08:37.732Z,35.27
2017-06-03T14:11:04.409Z,31.87
2017-06-03T14:13:31.075Z,35.63
2017-06-03T14:15:57.736Z,32.30
2017-06-03T14:18:24.404Z,31.50
2017-06-03T14:20:51.097Z,32.10
2017-06-03T14:23:17.780Z,30.67
2017-06-03T14:25:44.452Z,30.27
2017-06-03T14:28:11.131Z,27.60
2017-06-03T14:30:37.804Z,28.87
2017-06-03T14:33:04.471Z,24.17
2017-06-03T14:35:31.140Z,23.87
2017-06-03T14:37:57.839Z,25.00
2017-06-03T14:40:24.509Z,24.80
2017-06-03T14:42:51.204Z,27.33
2017-06-03T14:45:17.873Z,28.47
2017-06-03T14:47:44.574Z,27.53
2017-06-03T14:50:11.245Z,27.60
2017-06-03T14:52:37.916Z,24.47
2017-06-03T14:55:04.585Z,26.73
2017-06-03T14:57:31.256Z,29.17
2017-06-03T14:59:57.925Z,33.27
2017-06-03T15:02:24.591Z,36.07
2017-06-03T15:04:51.296Z,35.83
2017-06-03T15:07:17.971Z,36.50
2017-06-03T15:09:44.672Z,39.30
2017-06-03T15:12:11.348Z,36.87
2017-06-03T15:14:38.048Z,37.07
2017-06-03T15:17:04.722Z,34.93
2017-06-03T15:19:31.391Z,34.10
2017-06-03T15:21:58.070Z,37.40
2017-06-03T15:24:24.740Z,38.00
2017-06-03T15:26:51.412Z,38.40
2017-06-03T15:29:18.085Z,38.20
2017-06-03T15:31:44.784Z,36.30
2017-06-03T15:34:11.449Z,33.23
2017-06-03T15:36:38.160Z,33.77
2017-06-03T15:39:04.832Z,30.67
2017-06-03T15:41:31.502Z,33.30
2017-06-03T15:43:58.169Z,35.73
2017-06-03T15:46:24.841Z,35.47
2017-06-03T15:48:51.525Z,37.47
2017-06-03T15:51:18.202Z,35.90
2017-06-03T15:53:44.900Z,27.63
2017-06-03T15:56:11.576Z,25.00
2017-06-03T15:58:38.247Z,23.93
2017-06-03T16:01:04.915Z,23.07
2017-06-03T16:03:31.589Z,22.70
2017-06-03T16:05:58.264Z,22.70
2017-06-03T16:08:24.941Z,24.00
2017-06-03T16:10:51.612Z,23.83
2017-06-03T16:13:18.287Z,24.13
2017-06-03T16:15:44.948Z,22.20
2017-06-03T16:18:11.623Z,25.83
2017-06-03T16:20:38.349Z,21.67
2017-06-03T16:23:05.017Z,20.77
2017-06-03T16:25:31.683Z,19.87
2017-06-03T16:27:58.353Z,19.80
2017-06-03T16:30:25.021Z,19.73
2017-06-03T16:32:51.687Z,18.80
2017-06-03T16:35:18.360Z,18.07
2017-06-03T16:37:45.032Z,19.00
2017-06-03T16:40:11.696Z,19.80
2017-06-03T16:42:38.363Z,21.57
2017-06-03T16:45:05.031Z,19.30
2017-06-03T16:47:31.737Z,19.90
2017-06-03T16:49:58.411Z,20.97
2017-06-03T16:52:25.084Z,19.87
2017-06-03T16:54:51.751Z,20.40
2017-06-03T16:57:18.416Z,19.63
2017-06-03T16:59:45.083Z,19.23
2017-06-03T17:02:11.748Z,17.90
2017-06-03T17:04:38.423Z,18.40
2017-06-03T17:07:05.101Z,18.80
2017-06-03T17:09:31.772Z,20.37
2017-06-03T17:11:58.444Z,19.20
2017-06-03T17:14:25.122Z,21.33
2017-06-03T17:16:52.090Z,17.87
2017-06-03T17:19:18.757Z,17.53
2017-06-03T17:21:45.432Z,18.30
2017-06-03T17:24:12.102Z,19.97
2017-06-03T17:26:38.803Z,21.50
2017-06-03T17:29:05.471Z,24.20
2017-06-03T17:31:32.196Z,22.73
2017-06-03T17:33:58.860Z,22.53
2017-06-03T17:36:25.523Z,22.03
2017-06-03T17:38:52.199Z,21.20
2017-06-03T17:41:18.863Z,20.00
2017-06-03T17:43:45.560Z,18.37
2017-06-03T17:46:12.237Z,19.60
2017-06-03T17:48:38.932Z,19.90
2017-06-03T17:51:05.600Z,19.80
2017-06-03T17:53:32.301Z,16.03
2017-06-03T17:55:58.971Z,15.43
2017-06-03T17:58:25.638Z,13.13
2017-06-03T18:00:52.309Z,13.10
2017-06-03T18:03:18.982Z,11.70
2017-06-03T18:05:45.680Z,11.63
2017-06-03T18:08:12.347Z,11.07
2017-06-03T18:10:39.037Z,9.10
2017-06-03T18:13:05.699Z,9.70
2017-06-03T18:15:32.397Z,9.00
2017-06-03T18:17:59.067Z,10.40
2017-06-03T18:20:25.736Z,11.30
2017-06-03T18:22:52.407Z,10.73
2017-06-03T18:25:19.067Z,9.70
2017-06-03T18:27:45.756Z,10.70
2017-06-03T18:30:12.426Z,8.93
2017-06-03T18:32:39.107Z,9.83
2017-06-03T18:35:05.764Z,9.17
2017-06-03T18:37:32.453Z,9.40
2017-06-03T18:39:59.116Z,8.80
2017-06-03T18:42:25.771Z,9.93
2017-06-03T18:44:52.447Z,8.38
2017-06-03T18:47:19.119Z,8.52
2017-06-03T18:49:45.804Z,9.17
2017-06-03T18:52:12.480Z,9.05
2017-06-03T18:54:39.177Z,10.00
2017-06-03T18:57:05.851Z,8.38
2017-06-03T18:59:32.544Z,9.35
2017-06-03T19:01:59.203Z,9.03
2017-06-03T19:04:25.931Z,8.27
2017-06-03T19:06:52.595Z,9.40
2017-06-03T19:09:19.265Z,9.85
2017-06-03T19:11:45.936Z,10.57
2017-06-03T19:14:12.601Z,9.85
2017-06-03T19:16:39.305Z,10.98
2017-06-03T19:19:05.980Z,10.75
2017-06-03T19:21:32.687Z,11.95
2017-06-03T19:23:59.373Z,12.80
2017-06-03T19:26:26.077Z,14.25
2017-06-03T19:28:52.756Z,12.43
2017-06-03T19:31:19.440Z,13.25
2017-06-03T19:33:46.111Z,13.10
2017-06-03T19:36:12.791Z,11.95
2017-06-03T19:38:39.495Z,12.27
2017-06-03T19:41:06.177Z,12.75
2017-06-03T19:43:32.887Z,13.48
2017-06-03T19:45:59.580Z,13.82
2017-06-03T19:48:26.267Z,14.10
2017-06-03T19:50:52.944Z,13.57
2017-06-03T19:53:19.620Z,13.55
2017-06-03T19:55:46.291Z,14.50
2017-06-03T19:58:12.968Z,16.17
2017-06-03T20:00:39.671Z,17.98
2017-06-03T20:03:06.347Z,16.35
2017-06-03T20:05:33.019Z,15.43
2017-06-03T20:07:59.691Z,15.10
2017-06-03T20:10:26.367Z,14.87
2017-06-03T20:12:53.040Z,15.35
2017-06-03T20:15:19.732Z,14.77
2017-06-03T20:17:46.469Z,15.70
2017-06-03T20:20:13.149Z,14.05
2017-06-03T20:22:39.825Z,14.40
2017-06-03T20:25:06.504Z,15.52
2017-06-03T20:27:33.187Z,15.90
2017-06-03T20:29:59.863Z,16.15
2017-06-03T20:32:26.543Z,15.48
2017-06-03T20:34:53.220Z,16.00
2017-06-03T20:37:19.904Z,16.55
2017-06-03T20:39:46.616Z,16.55
2017-06-03T20:42:13.297Z,15.98
2017-06-03T20:44:39.973Z,14.25
2017-06-03T20:47:06.653Z,15.15
2017-06-03T20:49:33.332Z,15.35
2017-06-03T20:52:00.008Z,17.30
2017-06-03T20:54:26.688Z,16.83
2017-06-03T20:56:53.392Z,18.08
2017-06-03T20:59:20.081Z,16.00
2017-06-03T21:01:46.755Z,16.00
2017-06-03T21:04:13.439Z,18.05
2017-06-03T21:06:40.119Z,16.12
2017-06-03T21:09:06.800Z,18.77
2017-06-03T21:11:33.481Z,20.42
2017-06-03T21:14:00.169Z,18.95
2017-06-03T21:16:26.844Z,18.42
2017-06-03T21:18:53.561Z,19.95
2017-06-03T21:21:20.236Z,21.12
2017-06-03T21:23:46.917Z,21.58
2017-06-03T21:26:13.596Z,21.85
2017-06-03T21:28:40.280Z,19.92
2017-06-03T21:31:06.966Z,23.95
2017-06-03T21:33:33.644Z,23.08
2017-06-03T21:36:00.319Z,23.80
2017-06-03T21:38:26.999Z,23.90
2017-06-03T21:40:53.708Z,23.65
2017-06-03T21:43:20.381Z,23.65
2017-06-03T21:45:47.052Z,27.83
2017-06-03T21:48:13.723Z,28.77
2017-06-03T21:50:40.400Z,27.65
2017-06-03T21:53:07.096Z,26.05
2017-06-03T21:55:33.779Z,28.95
2017-06-03T21:58:00.456Z,28.83
2017-06-03T22:00:27.157Z,29.63
2017-06-03T22:02:53.836Z,27.45
2017-06-03T22:05:20.532Z,31.08
2017-06-03T22:07:47.200Z,28.17
2017-06-03T22:10:13.897Z,26.80
2017-06-03T22:12:40.567Z,26.75
2017-06-03T22:15:07.240Z,25.73
2017-06-03T22:17:33.907Z,27.65
2017-06-03T22:20:00.579Z,26.12
2017-06-03T22:22:27.277Z,27.90
2017-06-03T22:24:53.953Z,28.10
2017-06-03T22:27:20.658Z,26.10
2017-06-03T22:29:47.612Z,29.80
2017-06-03T22:32:14.313Z,27.90
2017-06-03T22:34:40.983Z,29.20
2017-06-03T22:37:07.656Z,28.35
2017-06-03T22:39:34.324Z,28.95
2017-06-03T22:42:00.991Z,30.12
2017-06-03T22:44:27.684Z,28.98
2017-06-03T22:46:54.355Z,31.17
2017-06-03T22:49:21.059Z,28.25
2017-06-03T22:51:47.741Z,26.67
2017-06-03T22:54:14.416Z,27.10
2017-06-03T22:56:41.090Z,26.20
2017-06-03T22:59:07.761Z,25.80
2017-06-03T23:01:34.462Z,25.30
2017-06-03T23:04:01.128Z,24.27
2017-06-03T23:06:27.854Z,22.92
2017-06-03T23:08:54.524Z,24.65
2017-06-03T23:11:21.203Z,24.80
2017-06-03T23:13:47.872Z,25.92
2017-06-03T23:16:14.546Z,25.95
2017-06-03T23:18:41.223Z,25.45
2017-06-03T23:21:07.892Z,26.55
2017-06-03T23:23:34.593Z,25.55
2017-06-03T23:26:01.268Z,28.23
2017-06-03T23:28:27.985Z,29.00
2017-06-03T23:30:54.656Z,28.75
2017-06-03T23:33:21.352Z,28.48
2017-06-03T23:35:48.019Z,30.77
2017-06-03T23:38:14.691Z,29.50
2017-06-03T23:40:41.363Z,34.47
2017-06-03T23:43:08.040Z,34.28
2017-06-03T23:45:34.743Z,34.25
2017-06-03T23:48:01.417Z,32.03
2017-06-03T23:50:28.125Z,34.60
2017-06-03T23:52:54.795Z,36.63
2017-06-03T23:55:21.467Z,38.10
2017-06-03T23:57:48.138Z,35.90
